createdAt,value
2018-12-24T00:02:02.173Z,100533.48
2018-12-24T00:04:26.694Z,100534.55
2018-12-24T00:06:51.169Z,100538.37
2018-12-24T00:09:15.714Z,100541.59
2018-12-24T00:11:40.222Z,100542.40
2018-12-24T00:14:04.730Z,100544.27
2018-12-24T00:16:29.237Z,100544.78
2018-12-24T00:18:53.720Z,100550.27
2018-12-24T00:21:18.220Z,100544.08
2018-12-24T00:23:42.722Z,100544.52
2018-12-24T00:26:07.251Z,100550.43
2018-12-24T00:28:37.114Z,100550.45
2018-12-24T00:31:01.652Z,100557.20
2018-12-24T00:33:26.138Z,100552.14
2018-12-24T00:35:50.627Z,100558.95
2018-12-24T00:38:15.132Z,100565.66
2018-12-24T00:40:39.645Z,100563.55
2018-12-24T00:43:15.512Z,100571.00
2018-12-24T00:45:40.005Z,100573.55
2018-12-24T00:48:04.479Z,100573.13
2018-12-24T00:50:28.983Z,100577.91
2018-12-24T00:52:53.464Z,100580.30
2018-12-24T00:55:17.979Z,100583.63
2018-12-24T00:57:42.458Z,100583.49
2018-12-24T01:00:07.012Z,100590.07
2018-12-24T01:02:31.515Z,100592.61
2018-12-24T01:04:56.109Z,100606.80
2018-12-24T01:07:20.603Z,100606.97
2018-12-24T01:09:45.079Z,100617.71
2018-12-24T01:12:09.584Z,100620.28
2018-12-24T01:14:34.065Z,100627.84
2018-12-24T01:16:58.593Z,100630.31
2018-12-24T01:19:23.087Z,100636.05
2018-12-24T01:24:23.149Z,100649.41
2018-12-24T01:26:47.622Z,100652.94
2018-12-24T01:29:12.132Z,100666.81
2018-12-24T01:31:36.602Z,100662.97
2018-12-24T01:34:01.105Z,100668.27
2018-12-24T01:36:25.599Z,100676.25
2018-12-24T01:38:50.093Z,100679.91
2018-12-24T01:41:14.582Z,100676.66
2018-12-24T01:43:39.079Z,100686.50
2018-12-24T01:46:03.572Z,100685.92
2018-12-24T01:48:28.340Z,100701.11
2018-12-24T01:50:58.686Z,100704.17
2018-12-24T01:53:23.180Z,100709.84
2018-12-24T01:55:47.672Z,100722.59
2018-12-24T01:58:12.161Z,100727.10
2018-12-24T02:00:36.661Z,100730.16
2018-12-24T02:03:01.163Z,100732.95
2018-12-24T02:05:25.675Z,100735.58
2018-12-24T02:07:50.146Z,100747.69
2018-12-24T02:10:14.642Z,100751.22
2018-12-24T02:12:42.410Z,100756.70
2018-12-24T02:15:10.771Z,100762.70
2018-12-24T02:17:35.255Z,100764.35
2018-12-24T02:19:59.751Z,100779.13
2018-12-24T02:22:24.242Z,100781.22
2018-12-24T02:24:48.725Z,100787.78
2018-12-24T02:27:19.129Z,100797.75
2018-12-24T02:29:43.602Z,100803.77
2018-12-24T02:32:08.096Z,100807.57
2018-12-24T02:34:32.644Z,100815.77
2018-12-24T02:36:57.116Z,100816.03
2018-12-24T02:39:21.617Z,100822.63
2018-12-24T02:41:46.117Z,100828.66
2018-12-24T02:44:10.600Z,100832.75
2018-12-24T02:46:35.086Z,100840.80
2018-12-24T02:48:59.637Z,100845.97
2018-12-24T02:51:24.135Z,100845.04
2018-12-24T02:53:48.635Z,100849.42
2018-12-24T02:56:13.133Z,100853.69
2018-12-24T02:58:37.622Z,100855.03
2018-12-24T03:01:02.127Z,100863.25
2018-12-24T03:03:26.607Z,100867.00
2018-12-24T03:05:51.107Z,100877.22
2018-12-24T03:08:15.588Z,100880.17
2018-12-24T03:10:40.094Z,100882.91
2018-12-24T03:13:04.565Z,100897.95
2018-12-24T03:15:29.063Z,100901.11
2018-12-24T03:17:53.527Z,100913.74
2018-12-24T03:20:18.100Z,100907.45
2018-12-24T03:22:42.587Z,100907.45
2018-12-24T03:25:07.143Z,100914.36
2018-12-24T03:27:31.656Z,100922.42
2018-12-24T03:29:56.145Z,100925.39
2018-12-24T03:32:20.641Z,100936.92
2018-12-24T03:34:45.131Z,100937.12
2018-12-24T03:37:09.648Z,100932.45
2018-12-24T03:39:34.137Z,100941.52
2018-12-24T03:41:58.617Z,100945.78
2018-12-24T03:44:23.090Z,100946.03
2018-12-24T03:49:23.276Z,100957.47
2018-12-24T03:54:23.760Z,100971.80
2018-12-24T03:56:48.247Z,100977.93
2018-12-24T03:59:12.730Z,100979.86
2018-12-24T04:01:37.220Z,100996.15
2018-12-24T04:04:01.758Z,100999.78
2018-12-24T04:06:26.240Z,101008.06
2018-12-24T04:08:50.753Z,101013.37
2018-12-24T04:11:15.244Z,101021.45
2018-12-24T04:13:45.177Z,101033.02
2018-12-24T04:16:09.667Z,101032.39
2018-12-24T04:18:34.439Z,101035.99
2018-12-24T04:20:58.913Z,101039.94
2018-12-24T04:23:23.400Z,101051.38
2018-12-24T04:25:47.910Z,101053.53
2018-12-24T04:28:12.393Z,101058.88
2018-12-24T04:30:36.879Z,101066.37
2018-12-24T04:33:06.590Z,101064.78
2018-12-24T04:35:31.089Z,101067.27
2018-12-24T04:37:55.562Z,101075.84
2018-12-24T04:40:20.068Z,101082.12
2018-12-24T04:42:44.544Z,101082.39
2018-12-24T04:45:14.577Z,101090.98
2018-12-24T04:47:39.059Z,101099.78
2018-12-24T04:50:08.786Z,101103.18
2018-12-24T04:52:33.273Z,101108.04
2018-12-24T04:54:57.755Z,101113.73
2018-12-24T04:57:28.207Z,101123.80
2018-12-24T04:59:52.667Z,101134.98
2018-12-24T05:02:17.171Z,101137.61
2018-12-24T05:04:41.651Z,101145.27
2018-12-24T05:07:06.153Z,101151.87
2018-12-24T05:09:30.626Z,101163.47
2018-12-24T05:11:55.138Z,101166.25
2018-12-24T05:14:19.626Z,101177.65
2018-12-24T05:19:20.755Z,101198.81
2018-12-24T05:21:57.479Z,101213.12
2018-12-24T05:24:21.985Z,101218.76
2018-12-24T05:26:46.475Z,101226.36
2018-12-24T05:29:10.956Z,101240.02
2018-12-24T05:31:35.451Z,101247.20
2018-12-24T05:34:00.049Z,101255.33
2018-12-24T05:36:24.492Z,101256.05
2018-12-24T05:38:49.028Z,101265.63
2018-12-24T05:41:13.516Z,101273.59
2018-12-24T05:43:38.014Z,101281.62
2018-12-24T05:46:02.503Z,101287.46
2018-12-24T05:48:26.980Z,101297.11
2018-12-24T05:50:51.475Z,101307.20
2018-12-24T05:53:15.966Z,101318.81
2018-12-24T05:55:45.781Z,101333.42
2018-12-24T05:58:10.280Z,101325.16
2018-12-24T06:00:40.596Z,101330.27
2018-12-24T06:03:10.239Z,101330.09
2018-12-24T06:05:34.736Z,101333.48
2018-12-24T06:07:59.206Z,101349.11
2018-12-24T06:10:23.728Z,101362.63
2018-12-24T06:12:53.409Z,101385.42
2018-12-24T06:15:17.895Z,101404.16
2018-12-24T06:17:42.392Z,101411.15
2018-12-24T06:20:06.934Z,101409.17
2018-12-24T06:22:31.435Z,101426.01
2018-12-24T06:24:55.916Z,101427.03
2018-12-24T06:27:20.419Z,101437.14
2018-12-24T06:29:44.903Z,101446.05
2018-12-24T06:32:09.450Z,101452.56
2018-12-24T06:34:33.887Z,101458.52
2018-12-24T06:36:58.396Z,101473.95
2018-12-24T06:39:22.865Z,101479.72
2018-12-24T06:41:47.346Z,101483.59
2018-12-24T06:44:11.842Z,101481.00
2018-12-24T06:46:36.333Z,101491.51
2018-12-24T06:49:00.824Z,101498.55
2018-12-24T06:51:31.472Z,101498.36
2018-12-24T06:53:55.982Z,101507.03
2018-12-24T06:56:20.478Z,101508.52
2018-12-24T06:58:50.211Z,101518.06
2018-12-24T07:01:14.666Z,101532.20
2018-12-24T07:03:44.428Z,101532.62
2018-12-24T07:06:08.916Z,101535.91
2018-12-24T07:08:33.403Z,101546.90
2018-12-24T07:10:57.911Z,101556.85
2018-12-24T07:13:22.398Z,101565.02
2018-12-24T07:15:46.900Z,101581.55
2018-12-24T07:20:47.058Z,101596.08
2018-12-24T07:23:11.559Z,101597.62
2018-12-24T07:25:36.075Z,101599.22
2018-12-24T07:28:00.560Z,101605.82
2018-12-24T07:30:25.065Z,101617.38
2018-12-24T07:32:49.568Z,101620.34
2018-12-24T07:35:14.040Z,101628.59
2018-12-24T07:37:38.554Z,101638.84
2018-12-24T07:40:03.051Z,101641.16
2018-12-24T07:42:33.731Z,101649.19
2018-12-24T07:44:58.209Z,101655.84
2018-12-24T07:47:22.707Z,101655.23
2018-12-24T07:49:47.197Z,101651.13
2018-12-24T07:52:11.687Z,101659.08
2018-12-24T07:54:36.178Z,101666.53
2018-12-24T07:57:00.685Z,101666.06
2018-12-24T07:59:25.151Z,101676.38
2018-12-24T08:01:49.635Z,101686.44
2018-12-24T08:04:14.143Z,101695.06
2018-12-24T08:06:38.624Z,101692.72
2018-12-24T08:09:03.302Z,101693.56
2018-12-24T08:11:27.795Z,101702.29
2018-12-24T08:13:52.303Z,101701.21
2018-12-24T08:16:22.622Z,101707.88
2018-12-24T08:18:52.348Z,101713.27
2018-12-24T08:21:36.105Z,101720.66
2018-12-24T08:24:00.596Z,101735.00
2018-12-24T08:26:25.078Z,101737.89
2018-12-24T08:28:49.591Z,101739.09
2018-12-24T08:31:14.068Z,101746.27
2018-12-24T08:33:38.559Z,101752.19
2018-12-24T08:36:03.128Z,101756.41
2018-12-24T08:38:27.608Z,101752.05
2018-12-24T08:40:52.119Z,101756.52
2018-12-24T08:43:16.604Z,101765.35
2018-12-24T08:45:41.099Z,101760.78
2018-12-24T08:48:05.592Z,101762.83
2018-12-24T08:50:30.104Z,101771.25
2018-12-24T08:52:54.595Z,101772.52
2018-12-24T08:55:19.129Z,101785.09
2018-12-24T08:57:43.606Z,101792.48
2018-12-24T09:00:08.099Z,101800.05
2018-12-24T09:02:32.604Z,101799.73
2018-12-24T09:04:57.089Z,101808.08
2018-12-24T09:07:21.587Z,101811.58
2018-12-24T09:09:46.077Z,101811.80
2018-12-24T09:12:10.579Z,101813.83
2018-12-24T09:14:35.063Z,101826.63
2018-12-24T09:16:59.547Z,101829.08
2018-12-24T09:19:24.035Z,101839.61
2018-12-24T09:21:54.750Z,101846.09
2018-12-24T09:24:19.241Z,101850.34
2018-12-24T09:26:43.723Z,101855.20
2018-12-24T09:29:08.237Z,101861.55
2018-12-24T09:31:32.727Z,101866.03
2018-12-24T09:34:03.069Z,101870.61
2018-12-24T09:36:32.863Z,101875.56
2018-12-24T09:38:57.351Z,101889.11
2018-12-24T09:41:21.916Z,101895.60
2018-12-24T09:43:46.413Z,101904.85
2018-12-24T09:46:10.887Z,101908.33
2018-12-24T09:48:35.449Z,101910.66
2018-12-24T09:51:12.256Z,101915.63
2018-12-24T09:53:36.775Z,101916.66
2018-12-24T09:56:01.325Z,101925.08
2018-12-24T09:58:25.837Z,101932.45
2018-12-24T10:00:50.329Z,101936.55
2018-12-24T10:03:15.148Z,101931.05
2018-12-24T10:05:39.652Z,101932.41
2018-12-24T10:08:24.928Z,101937.98
2018-12-24T10:10:49.433Z,101935.18
2018-12-24T10:13:13.916Z,101939.12
2018-12-24T10:15:38.412Z,101936.71
2018-12-24T10:18:02.944Z,101941.77
2018-12-24T10:20:27.437Z,101953.62
2018-12-24T10:22:51.932Z,101953.14
2018-12-24T10:25:16.403Z,101955.23
2018-12-24T10:27:40.967Z,101952.61
2018-12-24T10:30:26.239Z,101947.84
2018-12-24T10:32:50.790Z,101947.42
2018-12-24T10:35:15.261Z,101949.31
2018-12-24T10:37:39.754Z,101948.86
2018-12-24T10:43:06.789Z,101953.28
2018-12-24T10:48:07.551Z,101957.58
2018-12-24T10:50:32.066Z,101953.98
2018-12-24T10:52:56.554Z,101958.38
2018-12-24T10:55:21.092Z,101964.68
2018-12-24T10:57:45.572Z,101967.25
2018-12-24T11:03:06.756Z,101957.34
2018-12-24T11:05:31.302Z,101974.05
2018-12-24T11:07:55.810Z,101978.69
2018-12-24T11:10:20.292Z,101969.20
2018-12-24T11:12:45.115Z,101970.56
2018-12-24T11:15:10.166Z,101969.80
2018-12-24T11:17:34.689Z,101969.36
2018-12-24T11:19:59.173Z,101973.90
2018-12-24T11:22:23.668Z,101977.94
2018-12-24T11:24:48.152Z,101972.70
2018-12-24T11:27:12.666Z,101973.75
2018-12-24T11:29:37.149Z,101973.75
2018-12-24T11:32:01.621Z,101979.59
2018-12-24T11:34:26.128Z,101980.02
2018-12-24T11:36:56.745Z,101982.77
2018-12-24T11:39:21.255Z,101980.34
2018-12-24T11:41:45.769Z,101983.78
2018-12-24T11:46:51.272Z,101996.05
2018-12-24T11:49:27.848Z,101986.77
2018-12-24T11:51:52.341Z,101999.23
2018-12-24T11:54:16.848Z,101992.84
2018-12-24T11:56:41.316Z,101990.64
2018-12-24T11:59:05.842Z,101994.66
2018-12-24T12:01:42.476Z,101998.45
2018-12-24T12:04:06.993Z,101984.84
2018-12-24T12:06:31.469Z,102000.17
2018-12-24T12:08:55.959Z,102005.42
2018-12-24T12:11:20.477Z,102013.48
2018-12-24T12:13:44.960Z,102012.37
2018-12-24T12:16:09.468Z,102013.56
2018-12-24T12:18:33.965Z,102010.92
2018-12-24T12:20:58.477Z,102020.83
2018-12-24T12:23:22.953Z,102025.41
2018-12-24T12:25:53.432Z,102029.56
2018-12-24T12:28:17.916Z,102036.77
2018-12-24T12:30:42.432Z,102039.41
2018-12-24T12:33:06.936Z,102033.93
2018-12-24T12:35:31.402Z,102037.23
2018-12-24T12:43:08.234Z,102051.41
2018-12-24T12:45:51.179Z,102053.88
2018-12-24T12:48:11.083Z,102063.25
2018-12-24T12:50:35.570Z,102060.80
2018-12-24T12:53:00.101Z,102067.01
2018-12-24T12:55:24.579Z,102068.75
2018-12-24T12:57:49.111Z,102068.50
2018-12-24T13:00:13.611Z,102070.23
2018-12-24T13:02:38.190Z,102084.59
2018-12-24T13:05:02.690Z,102091.22
2018-12-24T13:07:27.199Z,102099.05
2018-12-24T13:09:51.697Z,102107.61
2018-12-24T13:12:16.205Z,102111.52
2018-12-24T13:14:40.811Z,102105.47
2018-12-24T13:17:05.309Z,102108.58
2018-12-24T13:19:29.825Z,102105.08
2018-12-24T13:21:54.358Z,102108.72
2018-12-24T13:24:18.859Z,102108.77
2018-12-24T13:26:43.670Z,102097.27
2018-12-24T13:29:08.117Z,102097.55
2018-12-24T13:31:32.622Z,102083.85
2018-12-24T13:33:57.116Z,102084.34
2018-12-24T13:36:21.627Z,102087.75
2018-12-24T13:38:46.115Z,102092.09
2018-12-24T13:41:10.627Z,102089.91
2018-12-24T13:43:35.379Z,102097.55
2018-12-24T13:46:07.872Z,102096.33
2018-12-24T13:49:12.756Z,102092.42
2018-12-24T13:51:37.471Z,102095.97
2018-12-24T13:54:01.852Z,102100.30
2018-12-24T13:56:31.528Z,102087.47
2018-12-24T13:58:55.908Z,102091.78
2018-12-24T14:01:20.366Z,102099.60
2018-12-24T14:03:44.769Z,102100.29
2018-12-24T14:06:09.150Z,102092.80
2018-12-24T14:08:33.580Z,102087.47
2018-12-24T14:10:57.977Z,102088.96
2018-12-24T14:13:22.379Z,102088.89
2018-12-24T14:15:46.750Z,102078.31
2018-12-24T14:18:11.165Z,102089.70
2018-12-24T14:20:35.569Z,102109.78
2018-12-24T14:22:59.967Z,102110.56
2018-12-24T14:25:24.355Z,102112.65
2018-12-24T14:27:48.742Z,102108.77
2018-12-24T14:32:49.462Z,102102.24
2018-12-24T14:35:13.889Z,102095.83
2018-12-24T14:37:38.266Z,102104.20
2018-12-24T14:40:02.683Z,102106.69
2018-12-24T14:42:27.079Z,102105.34
2018-12-24T14:44:51.487Z,102100.88
2018-12-24T14:47:15.902Z,102099.30
2018-12-24T14:49:40.297Z,102109.78
2018-12-24T14:52:04.764Z,102115.52
2018-12-24T14:54:29.157Z,102128.52
2018-12-24T14:56:53.567Z,102127.03
2018-12-24T14:59:19.261Z,102127.24
2018-12-24T15:01:49.756Z,102134.45
2018-12-24T15:04:14.149Z,102138.78
2018-12-24T15:06:38.535Z,102083.34
2018-12-24T15:11:38.445Z,102147.34
2018-12-24T15:14:02.835Z,102148.52
2018-12-24T15:16:33.841Z,102149.29
2018-12-24T15:19:02.275Z,102149.55
2018-12-24T15:21:26.699Z,102159.73
2018-12-24T15:23:51.077Z,102153.19
2018-12-24T15:26:15.502Z,102153.98
2018-12-24T15:28:39.918Z,102160.17
2018-12-24T15:31:04.298Z,102158.32
2018-12-24T15:33:28.764Z,102164.96
2018-12-24T15:35:53.131Z,102172.70
2018-12-24T15:38:17.540Z,102164.70
2018-12-24T15:40:41.918Z,102167.48
2018-12-24T15:43:06.325Z,102173.16
2018-12-24T15:45:30.706Z,102164.45
2018-12-24T15:47:55.190Z,102161.95
2018-12-24T15:50:19.570Z,102155.37
2018-12-24T15:52:43.980Z,102150.82
2018-12-24T15:55:08.416Z,102160.94
2018-12-24T15:57:32.816Z,102158.77
2018-12-24T15:59:57.224Z,102163.44
2018-12-24T16:02:21.622Z,102156.77
2018-12-24T16:04:46.027Z,102161.28
2018-12-24T16:07:10.414Z,102155.48
2018-12-24T16:09:34.830Z,102159.22
2018-12-24T16:11:59.226Z,102172.28
2018-12-24T16:14:23.653Z,102183.20
2018-12-24T16:16:51.171Z,102187.95
2018-12-24T16:19:23.113Z,102125.81
2018-12-24T16:21:47.531Z,102081.51
2018-12-24T16:24:11.904Z,102191.75
2018-12-24T16:26:36.301Z,102191.88
2018-12-24T16:29:00.725Z,102193.68
2018-12-24T16:31:25.113Z,102189.38
2018-12-24T16:33:49.532Z,102176.19
2018-12-24T16:36:13.922Z,102182.07
2018-12-24T16:38:38.312Z,102178.16
2018-12-24T16:41:02.694Z,102188.17
2018-12-24T16:43:27.096Z,102190.00
2018-12-24T16:45:51.522Z,102206.19
2018-12-24T16:48:15.916Z,102202.17
2018-12-24T16:50:40.513Z,102200.75
2018-12-24T16:53:04.896Z,102210.94
2018-12-24T16:55:41.657Z,102221.26
2018-12-24T16:58:06.031Z,102213.04
2018-12-24T17:00:30.437Z,102220.52
2018-12-24T17:02:54.839Z,102226.41
2018-12-24T17:05:19.310Z,102228.53
2018-12-24T17:07:43.683Z,102225.22
2018-12-24T17:13:04.821Z,102227.13
2018-12-24T17:15:29.216Z,102213.80
2018-12-24T17:17:53.615Z,102211.25
2018-12-24T17:20:17.979Z,102204.16
2018-12-24T17:22:42.381Z,102214.44
2018-12-24T17:25:06.757Z,102209.87
2018-12-24T17:27:31.162Z,102211.03
2018-12-24T17:29:55.528Z,102204.64
2018-12-24T17:32:19.980Z,102197.82
2018-12-24T17:34:44.353Z,102200.75
2018-12-24T17:37:08.744Z,102202.08
2018-12-24T17:39:33.144Z,102205.12
2018-12-24T17:41:57.537Z,102203.48
2018-12-24T17:44:21.934Z,102214.69
2018-12-24T17:46:46.325Z,102198.01
2018-12-24T17:49:10.746Z,102201.45
2018-12-24T17:51:35.119Z,102207.77
2018-12-24T17:53:59.497Z,102202.89
2018-12-24T17:56:23.883Z,102201.27
2018-12-24T17:58:48.289Z,102199.65
2018-12-24T18:01:12.715Z,102184.50
2018-12-24T18:03:37.107Z,102181.59
2018-12-24T18:06:01.525Z,102171.30
2018-12-24T18:08:38.513Z,102174.90
2018-12-24T18:11:02.907Z,102172.94
2018-12-24T18:13:27.280Z,102168.80
2018-12-24T18:15:51.713Z,102166.58
2018-12-24T18:18:16.085Z,102163.34
2018-12-24T18:20:40.471Z,102164.51
2018-12-24T18:23:04.863Z,102163.49
2018-12-24T18:25:29.240Z,102166.67
2018-12-24T18:27:53.649Z,102165.64
2018-12-24T18:30:18.029Z,102172.53
2018-12-24T18:32:42.408Z,102171.12
2018-12-24T18:35:06.804Z,102164.98
2018-12-24T18:37:31.217Z,102174.36
2018-12-24T18:39:55.619Z,102174.80
2018-12-24T18:42:20.029Z,102180.52
2018-12-24T18:44:44.434Z,102175.26
2018-12-24T18:47:08.852Z,102188.95
2018-12-24T18:49:33.247Z,102195.45
2018-12-24T18:51:57.619Z,102202.23
2018-12-24T18:54:22.039Z,102207.70
2018-12-24T18:56:46.426Z,102210.42
2018-12-24T19:01:46.953Z,102215.69
2018-12-24T19:04:11.352Z,102225.86
2018-12-24T19:06:35.738Z,102225.52
2018-12-24T19:09:00.159Z,102226.87
2018-12-24T19:11:24.554Z,102234.00
2018-12-24T19:13:48.956Z,102235.79
2018-12-24T19:16:13.366Z,102242.19
2018-12-24T19:18:37.739Z,102245.97
2018-12-24T19:21:02.160Z,102252.94
2018-12-24T19:23:26.534Z,102251.72
2018-12-24T19:26:03.299Z,102260.52
2018-12-24T19:28:27.683Z,102262.13
2018-12-24T19:30:52.093Z,102265.05
2018-12-24T19:33:16.481Z,102260.48
2018-12-24T19:35:40.899Z,102267.37
2018-12-24T19:38:05.312Z,102260.73
2018-12-24T19:40:29.691Z,102253.52
2018-12-24T19:42:54.113Z,102257.98
2018-12-24T19:45:18.501Z,102263.48
2018-12-24T19:47:49.834Z,102258.03
2018-12-24T19:50:14.900Z,102266.70
2018-12-24T19:52:39.298Z,102262.14
2018-12-24T19:55:03.783Z,102266.81
2018-12-24T19:57:28.174Z,102283.86
2018-12-24T19:59:52.581Z,102291.06
2018-12-24T20:04:53.219Z,102237.06
2018-12-24T20:07:17.630Z,102297.02
2018-12-24T20:09:42.037Z,102300.20
2018-12-24T20:12:06.596Z,102300.55
2018-12-24T20:14:31.008Z,102306.72
2018-12-24T20:16:55.389Z,102303.09
2018-12-24T20:19:19.815Z,102303.77
2018-12-24T20:21:44.193Z,102304.33
2018-12-24T20:24:08.586Z,102304.45
2018-12-24T20:26:32.988Z,102310.19
2018-12-24T20:28:57.405Z,102302.97
2018-12-24T20:31:21.801Z,102303.09
2018-12-24T20:33:46.175Z,102317.96
2018-12-24T20:36:10.583Z,102310.73
2018-12-24T20:38:37.214Z,102308.00
2018-12-24T20:41:06.642Z,102304.69
2018-12-24T20:43:31.043Z,102312.02
2018-12-24T20:45:55.476Z,102316.46
2018-12-24T20:48:19.854Z,102316.58
2018-12-24T20:50:44.258Z,102323.67
2018-12-24T20:53:08.636Z,102318.64
2018-12-24T20:55:33.149Z,102326.42
2018-12-24T20:57:57.541Z,102330.88
2018-12-24T21:00:21.939Z,102319.55
2018-12-24T21:02:46.363Z,102324.27
2018-12-24T21:05:10.753Z,102317.39
2018-12-24T21:07:35.181Z,102316.95
2018-12-24T21:09:59.589Z,102315.45
2018-12-24T21:12:23.996Z,102314.75
2018-12-24T21:14:48.380Z,102316.91
2018-12-24T21:17:12.797Z,102313.95
2018-12-24T21:19:37.185Z,102306.53
2018-12-24T21:22:01.679Z,102300.91
2018-12-24T21:24:26.081Z,102297.60
2018-12-24T21:26:50.500Z,102295.77
2018-12-24T21:29:14.910Z,102294.38
2018-12-24T21:31:39.342Z,102290.73
2018-12-24T21:34:03.757Z,102294.62
2018-12-24T21:36:28.162Z,102300.33
2018-12-24T21:38:52.554Z,102294.63
2018-12-24T21:41:16.956Z,102298.86
2018-12-24T21:46:17.779Z,102300.12
2018-12-24T21:48:42.205Z,102300.13
2018-12-24T21:51:06.611Z,102306.95
2018-12-24T21:53:30.991Z,102304.34
2018-12-24T21:55:55.394Z,102310.77
2018-12-24T21:58:19.772Z,102302.87
2018-12-24T22:00:44.168Z,102300.11
2018-12-24T22:03:08.546Z,102298.30
2018-12-24T22:05:32.940Z,102289.23
2018-12-24T22:07:57.306Z,102294.28
2018-12-24T22:10:21.712Z,102293.48
2018-12-24T22:12:52.006Z,102289.91
2018-12-24T22:15:16.407Z,102287.30
2018-12-24T22:17:40.808Z,102287.29
2018-12-24T22:23:02.252Z,102286.40
2018-12-24T22:25:26.677Z,102293.81
2018-12-24T22:27:51.060Z,102283.86
2018-12-24T22:30:15.454Z,102289.59
2018-12-24T22:32:39.850Z,102279.08
2018-12-24T22:35:04.464Z,102280.44
2018-12-24T22:37:28.875Z,102283.18
2018-12-24T22:39:53.252Z,102288.23
2018-12-24T22:42:17.663Z,102285.93
2018-12-24T22:44:42.039Z,102290.97
2018-12-24T22:47:06.442Z,102284.33
2018-12-24T22:49:30.857Z,102282.95
2018-12-24T22:51:55.244Z,102298.75
2018-12-24T22:54:19.654Z,102299.52
2018-12-24T22:56:44.047Z,102299.42
2018-12-24T22:59:08.455Z,102309.15
2018-12-24T23:01:32.845Z,102316.02
2018-12-24T23:03:57.266Z,102312.94
2018-12-24T23:06:21.661Z,102313.27
2018-12-24T23:08:46.080Z,102311.56
2018-12-24T23:11:10.478Z,102306.30
2018-12-24T23:16:11.254Z,102295.30
2018-12-24T23:18:35.647Z,102293.00
2018-12-24T23:21:00.047Z,102286.82
2018-12-24T23:23:24.436Z,102282.25
2018-12-24T23:25:48.843Z,102283.61
2018-12-24T23:28:13.216Z,102289.31
2018-12-24T23:30:37.631Z,102296.20
2018-12-24T23:33:02.006Z,102299.88
2018-12-24T23:35:26.429Z,102296.89
2018-12-24T23:37:50.818Z,102290.25
2018-12-24T23:40:15.215Z,102294.59
2018-12-24T23:42:51.713Z,102303.49
2018-12-24T23:45:16.092Z,102297.58
2018-12-24T23:47:40.494Z,102298.48
2018-12-24T23:50:04.959Z,102288.31
2018-12-24T23:52:29.365Z,102294.59
2018-12-24T23:54:53.759Z,102279.66
2018-12-24T23:57:18.184Z,102283.04
2018-12-24T23:59:42.579Z,102288.44
